Tasman Crusader — A8NQ7 — position and weather

sailwx.info

Track history (hours):
 
Tides and Currents Weather Stations Pressure Air Temp Water Temp Dewpoint Dewpoint Depression Visibility Wind Speed Wind Dir Waves Ship Positions

Tasman Crusader

Last reported at 2018-Feb-10 23:36 UTC. Time now 2018-Feb-23 08:43 UTC.
Position N 32°60' W 119°56'.
Warning: this ship's position is 12 days out of date.

Length 186 m; draft 9.3 m.

Type: Ship (hazmat cat A). MMSI: 636091434.

Date/timePositionNaut miles runAvg speedWind from/ knotsBaromVisibWave heightAir tempDewpointWater temp
2018-Feb-10 23:36N 32°60' W 119°56'2216.3
2018-Feb-10 22:13N 33°18' W 120°12'416.4
2018-Feb-10 22:00N 33°21' W 120°14'816.3
2018-Feb-10 21:30N 33°27' W 120°20'816.1
2018-Feb-10 21:00N 33°34' W 120°26'816.2
2018-Feb-10 20:30N 33°40' W 120°32'816.2
2018-Feb-10 20:00N 33°47' W 120°38'816.3
2018-Feb-10 19:30N 33°53' W 120°43'816.3
2018-Feb-10 19:00N 33°60' W 120°49'816.1
2018-Feb-10 18:30N 34°06' W 120°55'816.2
2018-Feb-10 18:00N 34°13' W 121°00'816.3
2018-Feb-10 17:30N 34°20' W 121°06'816.4
2018-Feb-10 17:00N 34°26' W 121°12'816.4
2018-Feb-10 16:30N 34°33' W 121°17'816.3
2018-Feb-10 16:01N 34°41' W 121°21'816.4
2018-Feb-10 15:30N 34°48' W 121°25'816.4
2018-Feb-10 15:00N 34°56' W 121°29'816.5
2018-Feb-10 14:30N 35°03' W 121°33'816.4
2018-Feb-10 14:00N 35°11' W 121°38'816.5
2018-Feb-10 13:30N 35°18' W 121°42'816.5
2018-Feb-10 13:00N 35°25' W 121°47'816.2
2018-Feb-10 12:30N 35°32' W 121°51'816.2
2018-Feb-10 12:00N 35°40' W 121°56'1016.0
2018-Feb-10 11:21N 35°49' W 122°01'2816.2
2018-Feb-10 09:38N 36°14' W 122°16'216.6
2018-Feb-10 09:30N 36°16' W 122°17'816.5
2018-Feb-10 09:00N 36°24' W 122°21'916.2
2018-Feb-10 08:27N 36°32' W 122°25'916.4
2018-Feb-10 07:54N 36°41' W 122°29'2216.2
2018-Feb-10 06:33N 37°01' W 122°39'216.2
2018-Feb-10 06:26N 37°03' W 122°39'916.2
2018-Feb-10 05:52N 37°12' W 122°43'616.1
2018-Feb-10 05:30N 37°18' W 122°44'816.2
2018-Feb-10 05:00N 37°26' W 122°44'816.4
2018-Feb-10 04:30N 37°34' W 122°43'816.0
2018-Feb-10 04:00N 37°42' W 122°42'611.2
2018-Feb-10 03:30N 37°46' W 122°38'714.6
2018-Feb-10 03:00N 37°49' W 122°29'611.3
2018-Feb-10 02:30N 37°48' W 122°22'2 4.8
2018-Feb-10 02:00N 37°48' W 122°19'0 0.0
2018-Feb-10 01:28N 37°48' W 122°19'0 0.0
2018-Feb-10 00:58N 37°48' W 122°19'0 0.0
2018-Feb-10 00:28N 37°48' W 122°19'0 0.0
2018-Feb-09 23:58N 37°48' W 122°19'0 0.0
2018-Feb-09 23:28N 37°48' W 122°19'0 0.0
2018-Feb-09 22:58N 37°48' W 122°19'0 0.0
2018-Feb-09 22:46N 37°48' W 122°19'4 0.4
2018-Feb-09 12:30N 37°49' W 122°24'714.3
2018-Feb-09 12:00N 37°47' W 122°33'2010.2
2018-Feb-09 10:01N 37°28' W 122°40'611.8
2018-Feb-09 09:31N 37°22' W 122°40'1711.5
2018-Feb-09 08:01N 37°05' W 122°38'25810.8
2018-Feb-08 08:00N 33°57' W 119°00'4310.9
2018-Feb-08 04:00N 33°40' W 118°12'6 2.3
2018-Feb-08 01:26N 33°46' W 118°14'0 0.0
2018-Feb-08 00:59N 33°46' W 118°14'0 0.0
2018-Feb-08 00:29N 33°46' W 118°14'0 0.0
2018-Feb-07 23:59N 33°46' W 118°14'0 0.0
2018-Feb-07 23:29N 33°46' W 118°14'0 0.0
2018-Feb-07 22:59N 33°46' W 118°14'0 0.0
2018-Feb-07 22:29N 33°46' W 118°14'0 0.0
2018-Feb-07 21:59N 33°46' W 118°14'0 0.0
2018-Feb-07 21:29N 33°46' W 118°14'21 1.8
2018-Feb-07 09:30N 33°26' W 118°06'510.5
2018-Feb-07 09:00N 33°21' W 118°04'510.6
2018-Feb-07 08:30N 33°16' W 118°02'510.6
2018-Feb-07 08:00N 33°12' W 117°59'510.6
2018-Feb-07 07:30N 33°07' W 117°56'1515.2
2018-Feb-07 06:31N 32°53' W 117°48'815.3
2018-Feb-07 06:00N 32°46' W 117°45'815.2
2018-Feb-07 05:30N 32°39' W 117°42'815.3
2018-Feb-07 05:00N 32°32' W 117°38'815.6
2018-Feb-07 04:29N 32°24' W 117°35'815.5
2018-Feb-07 03:59N 32°17' W 117°32'715.2
2018-Feb-07 03:30N 32°10' W 117°29'815.5
2018-Feb-07 02:58N 32°02' W 117°26'715.6
2018-Feb-07 02:30N 31°55' W 117°24'815.4
2018-Feb-07 02:00N 31°48' W 117°21'4115.6
2018-Feb-06 23:24N 31°09' W 117°05'615.9
2018-Feb-06 23:00N 31°03' W 117°03'815.8
2018-Feb-06 22:30N 30°56' W 116°60'2011.3
2018-Feb-06 20:47N 30°37' W 116°53'816.7
2018-Feb-06 20:17N 30°30' W 116°50'9016.7
2018-Feb-06 14:53N 29°04' W 116°15'916.8
2018-Feb-06 14:22N 28°56' W 116°11'5317.0
2018-Feb-06 11:15N 28°06' W 115°52'2716.5
2018-Feb-06 09:38N 27°44' W 115°36'416.5
2018-Feb-06 09:24N 27°40' W 115°33'4217.0
2018-Feb-06 06:55N 27°06' W 115°06'  
Track history (hours):
 
Tides and Currents Weather Stations Pressure Air Temp Water Temp Dewpoint Dewpoint Depression Visibility Wind Speed Wind Dir Waves Ship Positions

Tasman Crusader

Last reported at 2018-Feb-10 23:36 UTC. Time now 2018-Feb-23 08:43 UTC.
Position N 32°60' W 119°56'.
Warning: this ship's position is 12 days out of date.

Length 186 m; draft 9.3 m.

Type: Ship (hazmat cat A). MMSI: 636091434.

Date/timePositionNaut miles runAvg speedWind from/ knotsBaromVisibWave heightAir tempDewpointWater temp
2018-Feb-10 23:36N 32°60' W 119°56'2216.3
2018-Feb-10 22:13N 33°18' W 120°12'416.4
2018-Feb-10 22:00N 33°21' W 120°14'816.3
2018-Feb-10 21:30N 33°27' W 120°20'816.1
2018-Feb-10 21:00N 33°34' W 120°26'816.2
2018-Feb-10 20:30N 33°40' W 120°32'816.2
2018-Feb-10 20:00N 33°47' W 120°38'816.3
2018-Feb-10 19:30N 33°53' W 120°43'816.3
2018-Feb-10 19:00N 33°60' W 120°49'816.1
2018-Feb-10 18:30N 34°06' W 120°55'816.2
2018-Feb-10 18:00N 34°13' W 121°00'816.3
2018-Feb-10 17:30N 34°20' W 121°06'816.4
2018-Feb-10 17:00N 34°26' W 121°12'816.4
2018-Feb-10 16:30N 34°33' W 121°17'816.3
2018-Feb-10 16:01N 34°41' W 121°21'816.4
2018-Feb-10 15:30N 34°48' W 121°25'816.4
2018-Feb-10 15:00N 34°56' W 121°29'816.5
2018-Feb-10 14:30N 35°03' W 121°33'816.4
2018-Feb-10 14:00N 35°11' W 121°38'816.5
2018-Feb-10 13:30N 35°18' W 121°42'816.5
2018-Feb-10 13:00N 35°25' W 121°47'816.2
2018-Feb-10 12:30N 35°32' W 121°51'816.2
2018-Feb-10 12:00N 35°40' W 121°56'1016.0
2018-Feb-10 11:21N 35°49' W 122°01'2816.2
2018-Feb-10 09:38N 36°14' W 122°16'216.6
2018-Feb-10 09:30N 36°16' W 122°17'816.5
2018-Feb-10 09:00N 36°24' W 122°21'916.2
2018-Feb-10 08:27N 36°32' W 122°25'916.4
2018-Feb-10 07:54N 36°41' W 122°29'2216.2
2018-Feb-10 06:33N 37°01' W 122°39'216.2
2018-Feb-10 06:26N 37°03' W 122°39'916.2
2018-Feb-10 05:52N 37°12' W 122°43'616.1
2018-Feb-10 05:30N 37°18' W 122°44'816.2
2018-Feb-10 05:00N 37°26' W 122°44'816.4
2018-Feb-10 04:30N 37°34' W 122°43'816.0
2018-Feb-10 04:00N 37°42' W 122°42'611.2
2018-Feb-10 03:30N 37°46' W 122°38'714.6
2018-Feb-10 03:00N 37°49' W 122°29'611.3
2018-Feb-10 02:30N 37°48' W 122°22'2 4.8
2018-Feb-10 02:00N 37°48' W 122°19'0 0.0
2018-Feb-10 01:28N 37°48' W 122°19'0 0.0
2018-Feb-10 00:58N 37°48' W 122°19'0 0.0
2018-Feb-10 00:28N 37°48' W 122°19'0 0.0
2018-Feb-09 23:58N 37°48' W 122°19'0 0.0
2018-Feb-09 23:28N 37°48' W 122°19'0 0.0
2018-Feb-09 22:58N 37°48' W 122°19'0 0.0
2018-Feb-09 22:46N 37°48' W 122°19'4 0.4
2018-Feb-09 12:30N 37°49' W 122°24'714.3
2018-Feb-09 12:00N 37°47' W 122°33'2010.2
2018-Feb-09 10:01N 37°28' W 122°40'611.8
2018-Feb-09 09:31N 37°22' W 122°40'1711.5
2018-Feb-09 08:01N 37°05' W 122°38'25810.8
2018-Feb-08 08:00N 33°57' W 119°00'4310.9
2018-Feb-08 04:00N 33°40' W 118°12'6 2.3
2018-Feb-08 01:26N 33°46' W 118°14'0 0.0
2018-Feb-08 00:59N 33°46' W 118°14'0 0.0
2018-Feb-08 00:29N 33°46' W 118°14'0 0.0
2018-Feb-07 23:59N 33°46' W 118°14'0 0.0
2018-Feb-07 23:29N 33°46' W 118°14'0 0.0
2018-Feb-07 22:59N 33°46' W 118°14'0 0.0
2018-Feb-07 22:29N 33°46' W 118°14'0 0.0
2018-Feb-07 21:59N 33°46' W 118°14'0 0.0
2018-Feb-07 21:29N 33°46' W 118°14'21 1.8
2018-Feb-07 09:30N 33°26' W 118°06'510.5
2018-Feb-07 09:00N 33°21' W 118°04'510.6
2018-Feb-07 08:30N 33°16' W 118°02'510.6
2018-Feb-07 08:00N 33°12' W 117°59'510.6
2018-Feb-07 07:30N 33°07' W 117°56'1515.2
2018-Feb-07 06:31N 32°53' W 117°48'815.3
2018-Feb-07 06:00N 32°46' W 117°45'815.2
2018-Feb-07 05:30N 32°39' W 117°42'815.3
2018-Feb-07 05:00N 32°32' W 117°38'815.6
2018-Feb-07 04:29N 32°24' W 117°35'815.5
2018-Feb-07 03:59N 32°17' W 117°32'715.2
2018-Feb-07 03:30N 32°10' W 117°29'815.5
2018-Feb-07 02:58N 32°02' W 117°26'715.6
2018-Feb-07 02:30N 31°55' W 117°24'815.4
2018-Feb-07 02:00N 31°48' W 117°21'4115.6
2018-Feb-06 23:24N 31°09' W 117°05'615.9
2018-Feb-06 23:00N 31°03' W 117°03'815.8
2018-Feb-06 22:30N 30°56' W 116°60'2011.3
2018-Feb-06 20:47N 30°37' W 116°53'816.7
2018-Feb-06 20:17N 30°30' W 116°50'9016.7
2018-Feb-06 14:53N 29°04' W 116°15'916.8
2018-Feb-06 14:22N 28°56' W 116°11'5317.0
2018-Feb-06 11:15N 28°06' W 115°52'2716.5
2018-Feb-06 09:38N 27°44' W 115°36'416.5
2018-Feb-06 09:24N 27°40' W 115°33'4217.0
2018-Feb-06 06:55N 27°06' W 115°06'  

Dump ship's entire track history